Time;durP1;ratioP1;P1;durP2;ratioP2;P2;SDS_P1;SDS_P2;PMS_P1;PMS_P2;Temp;Humidity;BMP_temperature;BMP_pressure;BME280_temperature;BME280_humidity;BME280_pressure;Samples;Min_cycle;Max_cycle;Signal;HPM_P1;HPM_P2
2022/06/21 00:00:59;;;;;;;;;;;14.30;98.60;;;;;;5074619;28;19915;-48
2022/06/21 00:03:45;;;;;;;;;;;14.30;98.70;;;;;;5072201;28;19920;-49
2022/06/21 00:06:29;;;;;;;;;;;14.20;98.90;;;;;;5069850;28;19915;-48
2022/06/21 00:09:18;;;;;;;;;;;14.10;99.30;;;;;;5073999;28;19919;-49
2022/06/21 00:12:03;;;;;;;;;;;14.10;99.50;;;;;;5073735;28;19978;-50
2022/06/21 00:14:47;;;;;;;;;;;14.00;99.70;;;;;;5074387;28;19911;-49
2022/06/21 00:17:31;;;;;;;;;;;13.90;99.90;;;;;;5071353;28;19934;-53
2022/06/21 00:20:20;;;;;;;;;;;13.90;99.90;;;;;;5066953;28;19920;-51
2022/06/21 00:23:06;;;;;;;;;;;13.90;99.90;;;;;;5073705;28;19961;-53
2022/06/21 00:25:50;;;;;;;;;;;13.80;99.90;;;;;;5073856;28;20379;-49
2022/06/21 00:28:34;;;;;;;;;;;13.50;99.90;;;;;;5072881;28;20171;-50
2022/06/21 00:31:21;;;;;;;;;;;13.40;99.90;;;;;;5073376;28;20009;-49
2022/06/21 00:34:11;;;;;;;;;;;13.40;99.90;;;;;;5072695;28;19910;-48
2022/06/21 00:36:59;;;;;;;;;;;13.30;99.90;;;;;;5073523;28;20054;-49
2022/06/21 00:39:44;;;;;;;;;;;13.20;99.90;;;;;;5073248;28;20477;-49
2022/06/21 00:42:30;;;;;;;;;;;13.10;99.90;;;;;;5073649;28;20008;-48
2022/06/21 00:45:29;;;;;;;;;;;13.20;99.90;;;;;;5073079;28;20007;-47
2022/06/21 00:48:13;;;;;;;;;;;13.20;99.90;;;;;;5073704;28;19927;-48
2022/06/21 00:51:03;;;;;;;;;;;13.20;99.90;;;;;;5054090;28;19916;-50
2022/06/21 00:53:57;;;;;;;;;;;13.30;99.90;;;;;;5056797;28;19911;-49
2022/06/21 00:56:45;;;;;;;;;;;13.40;99.90;;;;;;5057427;28;19923;-46
2022/06/21 00:59:30;;;;;;;;;;;13.30;99.90;;;;;;5053726;28;19915;-49
2022/06/21 01:02:17;;;;;;;;;;;13.40;99.90;;;;;;5055475;28;20066;-49
2022/06/21 01:05:02;;;;;;;;;;;13.30;99.90;;;;;;5073268;28;19919;-50
2022/06/21 01:07:46;;;;;;;;;;;13.30;99.90;;;;;;5073133;28;20003;-50
2022/06/21 01:10:30;;;;;;;;;;;13.40;99.90;;;;;;5072620;28;19915;-51
2022/06/21 01:13:16;;;;;;;;;;;13.30;99.90;;;;;;5072338;28;19919;-52
2022/06/21 01:16:00;;;;;;;;;;;13.20;99.90;;;;;;5071080;28;19967;-52
2022/06/21 01:18:45;;;;;;;;;;;13.20;99.90;;;;;;5070029;28;19918;-51
2022/06/21 01:21:30;;;;;;;;;;;13.40;99.90;;;;;;5057412;28;20261;-50
2022/06/21 01:24:19;;;;;;;;;;;13.40;99.90;;;;;;5053247;28;19919;-52
2022/06/21 01:27:03;;;;;;;;;;;13.30;99.90;;;;;;5056777;28;19930;-51
2022/06/21 01:29:47;;;;;;;;;;;13.40;99.90;;;;;;5074751;28;19931;-53
2022/06/21 01:32:31;;;;;;;;;;;13.30;99.90;;;;;;5038313;28;19959;-52
2022/06/21 01:35:28;;;;;;;;;;;13.20;99.90;;;;;;5060952;28;19958;-55
2022/06/21 01:38:15;;;;;;;;;;;13.10;99.90;;;;;;5073269;28;19915;-55
2022/06/21 01:41:08;;;;;;;;;;;12.80;99.90;;;;;;5073049;28;20382;-53
2022/06/21 01:43:53;;;;;;;;;;;12.70;99.90;;;;;;5064689;28;19915;-52
2022/06/21 01:46:37;;;;;;;;;;;12.60;99.90;;;;;;5072462;28;19958;-48
2022/06/21 01:49:25;;;;;;;;;;;12.70;99.90;;;;;;5073125;28;20513;-52
2022/06/21 01:52:11;;;;;;;;;;;12.50;99.90;;;;;;5074016;28;19911;-51
2022/06/21 01:55:19;;;;;;;;;;;12.40;99.90;;;;;;5057237;28;19930;-48
2022/06/21 01:58:04;;;;;;;;;;;12.50;99.90;;;;;;5055064;28;19919;-53
2022/06/21 02:00:57;;;;;;;;;;;12.40;99.90;;;;;;5072186;28;19959;-48
2022/06/21 02:03:44;;;;;;;;;;;12.50;99.90;;;;;;5072490;28;20284;-53
2022/06/21 02:06:30;;;;;;;;;;;12.60;99.90;;;;;;5056712;28;19954;-48
2022/06/21 02:09:17;;;;;;;;;;;12.70;99.90;;;;;;5057445;28;19951;-51
2022/06/21 02:12:10;;;;;;;;;;;12.70;99.90;;;;;;5072770;28;19912;-48
2022/06/21 02:14:55;;;;;;;;;;;12.70;99.90;;;;;;5053126;28;20288;-52
2022/06/21 02:17:41;;;;;;;;;;;12.60;99.90;;;;;;5068943;28;20059;-48
2022/06/21 02:20:29;;;;;;;;;;;12.40;99.90;;;;;;5071700;28;19926;-49
2022/06/21 02:23:14;;;;;;;;;;;12.40;99.90;;;;;;5052388;28;19920;-49
2022/06/21 02:25:58;;;;;;;;;;;12.40;99.90;;;;;;5046364;28;19915;-52
2022/06/21 02:28:43;;;;;;;;;;;12.50;99.90;;;;;;5071296;28;19958;-52
2022/06/21 02:31:27;;;;;;;;;;;12.40;99.90;;;;;;5071917;28;20003;-50
2022/06/21 02:34:15;;;;;;;;;;;12.40;99.90;;;;;;5072841;28;19962;-49
2022/06/21 02:37:00;;;;;;;;;;;12.30;99.90;;;;;;5056337;28;20042;-48
2022/06/21 02:39:46;;;;;;;;;;;12.30;99.90;;;;;;5072356;28;20038;-52
2022/06/21 02:42:32;;;;;;;;;;;12.20;99.90;;;;;;5039328;28;19980;-50
2022/06/21 02:45:26;;;;;;;;;;;12.10;99.90;;;;;;5072196;28;19931;-51
2022/06/21 02:48:14;;;;;;;;;;;11.80;99.90;;;;;;5072386;28;20575;-51
2022/06/21 02:51:01;;;;;;;;;;;11.90;99.90;;;;;;5056611;28;19912;-52
2022/06/21 02:54:07;;;;;;;;;;;12.00;99.90;;;;;;5070307;28;20374;-49
2022/06/21 02:57:06;;;;;;;;;;;12.00;99.90;;;;;;5060169;28;19959;-51
2022/06/21 02:59:51;;;;;;;;;;;12.10;99.90;;;;;;5062844;28;19918;-48
2022/06/21 03:02:35;;;;;;;;;;;12.10;99.90;;;;;;5074649;28;19954;-50
2022/06/21 03:05:25;;;;;;;;;;;12.20;99.90;;;;;;5074153;28;19959;-51
2022/06/21 03:08:09;;;;;;;;;;;12.40;99.90;;;;;;5075032;28;19924;-50
2022/06/21 03:10:54;;;;;;;;;;;12.40;99.90;;;;;;5075857;28;20043;-48
2022/06/21 03:13:39;;;;;;;;;;;12.30;99.90;;;;;;5075758;28;19931;-47
2022/06/21 03:16:23;;;;;;;;;;;12.20;99.90;;;;;;5070241;28;19967;-49
2022/06/21 03:19:14;;;;;;;;;;;12.10;99.90;;;;;;5060429;28;19950;-47
2022/06/21 03:21:58;;;;;;;;;;;12.00;99.90;;;;;;5062612;28;19950;-50
2022/06/21 03:24:43;;;;;;;;;;;11.80;99.90;;;;;;5075034;28;19915;-48
2022/06/21 03:27:31;;;;;;;;;;;11.60;99.90;;;;;;5074574;28;19935;-48
2022/06/21 03:30:18;;;;;;;;;;;11.70;99.90;;;;;;5074877;28;19919;-52
2022/06/21 03:33:03;;;;;;;;;;;11.70;99.90;;;;;;5059912;28;20000;-53
2022/06/21 03:35:47;;;;;;;;;;;11.60;99.90;;;;;;5054682;28;19954;-51
2022/06/21 03:38:32;;;;;;;;;;;11.70;99.90;;;;;;5057952;28;20006;-48
2022/06/21 03:44:26;;;;;;;;;;;12.00;99.90;;;;;;5081632;28;19939;-52
2022/06/21 03:47:13;;;;;;;;;;;12.20;99.90;;;;;;5074092;28;19942;-49
2022/06/21 03:50:03;;;;;;;;;;;12.30;99.90;;;;;;5074958;28;20082;-50
2022/06/21 03:52:54;;;;;;;;;;;12.40;99.90;;;;;;5060811;28;20276;-48
2022/06/21 03:55:43;;;;;;;;;;;12.50;99.90;;;;;;5074159;28;20593;-53
2022/06/21 03:58:44;;;;;;;;;;;12.60;99.90;;;;;;5074765;28;19955;-51
2022/06/21 04:01:33;;;;;;;;;;;12.70;99.90;;;;;;5075241;28;19974;-51
2022/06/21 04:04:22;;;;;;;;;;;12.80;99.90;;;;;;5073849;28;19919;-49
2022/06/21 04:07:14;;;;;;;;;;;12.80;99.90;;;;;;5074461;28;20001;-53
2022/06/21 04:10:21;;;;;;;;;;;12.80;99.90;;;;;;5054122;28;19974;-48
2022/06/21 04:13:23;;;;;;;;;;;12.90;99.90;;;;;;5060105;28;20007;-50
2022/06/21 04:16:14;;;;;;;;;;;13.00;99.90;;;;;;5073589;28;19911;-52
2022/06/21 04:19:20;;;;;;;;;;;13.00;99.90;;;;;;5074106;28;19915;-49
2022/06/21 04:22:25;;;;;;;;;;;13.10;99.90;;;;;;5074138;28;19919;-47
2022/06/21 04:25:14;;;;;;;;;;;13.10;99.90;;;;;;5073897;28;19934;-50
2022/06/21 04:28:02;;;;;;;;;;;13.20;99.90;;;;;;5074041;28;19935;-48
2022/06/21 04:30:51;;;;;;;;;;;13.20;99.90;;;;;;5073859;28;19950;-53
2022/06/21 04:33:47;;;;;;;;;;;13.20;99.90;;;;;;5074581;28;19914;-48
2022/06/21 04:36:35;;;;;;;;;;;13.10;99.90;;;;;;5073393;28;20379;-50
2022/06/21 04:39:22;;;;;;;;;;;13.10;99.90;;;;;;5054234;28;19924;-51
2022/06/21 04:42:26;;;;;;;;;;;13.10;99.90;;;;;;5066479;28;19923;-52
2022/06/21 04:45:20;;;;;;;;;;;13.00;99.90;;;;;;5080510;28;20015;-51
2022/06/21 04:48:04;;;;;;;;;;;12.80;99.90;;;;;;5065790;28;19919;-49
2022/06/21 04:50:51;;;;;;;;;;;12.90;99.90;;;;;;5074506;28;19967;-53
2022/06/21 04:54:02;;;;;;;;;;;13.10;99.90;;;;;;5074381;28;20402;-53
2022/06/21 04:56:50;;;;;;;;;;;13.00;99.90;;;;;;5073576;28;20509;-48
2022/06/21 04:59:39;;;;;;;;;;;12.80;99.90;;;;;;5073911;28;20038;-53
2022/06/21 05:02:23;;;;;;;;;;;13.00;99.90;;;;;;5075159;28;19920;-47
2022/06/21 05:05:12;;;;;;;;;;;13.00;99.90;;;;;;5054443;28;19911;-53
2022/06/21 05:08:09;;;;;;;;;;;13.00;99.90;;;;;;5054625;28;19911;-54
2022/06/21 05:10:54;;;;;;;;;;;13.00;99.90;;;;;;5060978;28;19962;-52
2022/06/21 05:13:42;;;;;;;;;;;13.10;99.90;;;;;;5074032;28;20367;-47
2022/06/21 05:16:27;;;;;;;;;;;13.20;99.90;;;;;;5070619;28;19915;-53
2022/06/21 05:19:16;;;;;;;;;;;13.40;99.90;;;;;;5065968;28;19931;-50
2022/06/21 05:22:04;;;;;;;;;;;13.30;99.90;;;;;;5074136;28;20109;-48
2022/06/21 05:24:48;;;;;;;;;;;13.30;99.90;;;;;;5072596;28;19915;-48
2022/06/21 05:27:45;;;;;;;;;;;13.40;99.90;;;;;;5057436;28;20005;-49
2022/06/21 05:31:03;;;;;;;;;;;13.50;99.90;;;;;;5072364;28;19912;-47
2022/06/21 05:33:49;;;;;;;;;;;13.60;99.90;;;;;;5036004;28;19915;-58
2022/06/21 05:36:41;;;;;;;;;;;13.80;99.90;;;;;;5071356;28;19916;-49
2022/06/21 05:39:35;;;;;;;;;;;14.00;99.90;;;;;;5071157;28;19931;-51
2022/06/21 05:42:22;;;;;;;;;;;14.10;99.90;;;;;;5071133;28;19935;-49
2022/06/21 05:45:10;;;;;;;;;;;14.00;99.90;;;;;;5085762;28;19935;-49
2022/06/21 05:48:06;;;;;;;;;;;14.00;99.90;;;;;;5071388;28;20478;-51
2022/06/21 05:50:51;;;;;;;;;;;14.10;99.90;;;;;;5072169;28;19958;-48
2022/06/21 05:53:39;;;;;;;;;;;14.10;99.90;;;;;;5073093;28;19957;-49
2022/06/21 05:56:24;;;;;;;;;;;14.10;99.90;;;;;;5077061;28;19925;-50
2022/06/21 05:59:11;;;;;;;;;;;14.00;99.90;;;;;;5065232;28;19965;-48
2022/06/21 06:02:14;;;;;;;;;;;14.20;99.90;;;;;;5067790;28;19912;-47
2022/06/21 06:05:04;;;;;;;;;;;14.40;99.90;;;;;;5070565;28;20318;-49
2022/06/21 06:07:51;;;;;;;;;;;14.40;99.90;;;;;;5071211;28;20355;-53
2022/06/21 06:10:37;;;;;;;;;;;14.20;99.90;;;;;;5071904;28;19918;-51
2022/06/21 06:13:25;;;;;;;;;;;14.00;99.90;;;;;;5072659;28;20275;-49
2022/06/21 06:16:29;;;;;;;;;;;14.20;99.90;;;;;;5072296;28;19916;-53
2022/06/21 06:19:21;;;;;;;;;;;14.30;99.90;;;;;;5054405;28;19915;-47
2022/06/21 06:22:05;;;;;;;;;;;14.40;99.90;;;;;;5071550;28;19938;-48
2022/06/21 06:24:49;;;;;;;;;;;14.50;99.90;;;;;;5072051;28;19912;-47
2022/06/21 06:27:45;;;;;;;;;;;14.70;99.90;;;;;;5069676;28;19919;-52
2022/06/21 06:30:36;;;;;;;;;;;14.60;99.90;;;;;;5071905;28;20359;-51
2022/06/21 06:33:23;;;;;;;;;;;14.40;99.90;;;;;;5059994;28;20418;-50
2022/06/21 06:36:10;;;;;;;;;;;14.70;99.90;;;;;;5075098;28;20041;-51
2022/06/21 06:38:56;;;;;;;;;;;14.80;99.90;;;;;;5071655;28;19923;-51
2022/06/21 06:41:59;;;;;;;;;;;14.90;99.90;;;;;;5074836;28;19996;-48
2022/06/21 06:44:49;;;;;;;;;;;15.00;99.90;;;;;;5074368;28;19923;-49
2022/06/21 06:47:37;;;;;;;;;;;15.10;99.90;;;;;;5071989;28;19916;-48
2022/06/21 06:50:27;;;;;;;;;;;15.20;99.90;;;;;;5069080;28;20470;-48
2022/06/21 06:53:32;;;;;;;;;;;15.10;99.90;;;;;;5075140;28;20000;-47
2022/06/21 06:56:24;;;;;;;;;;;15.20;99.70;;;;;;5075392;28;19931;-46
2022/06/21 06:59:12;;;;;;;;;;;15.20;99.90;;;;;;5075337;28;19931;-48
2022/06/21 07:02:18;;;;;;;;;;;15.20;99.80;;;;;;5075082;28;19915;-48
2022/06/21 07:05:06;;;;;;;;;;;15.10;99.50;;;;;;5075938;28;19935;-46
2022/06/21 07:07:56;;;;;;;;;;;15.30;99.10;;;;;;5076188;28;20001;-50
2022/06/21 07:10:41;;;;;;;;;;;15.50;98.80;;;;;;5075361;28;19949;-49
2022/06/21 07:13:25;;;;;;;;;;;15.60;98.50;;;;;;5074928;28;19959;-48
2022/06/21 07:16:11;;;;;;;;;;;15.70;98.50;;;;;;5074518;28;19915;-46
2022/06/21 07:18:58;;;;;;;;;;;15.90;98.40;;;;;;5075277;28;19958;-50
2022/06/21 07:21:44;;;;;;;;;;;16.10;98.00;;;;;;5075042;28;19966;-45
2022/06/21 07:24:28;;;;;;;;;;;15.60;98.00;;;;;;5075095;28;19920;-48
2022/06/21 07:27:13;;;;;;;;;;;15.80;98.10;;;;;;5075550;28;19916;-48
2022/06/21 07:30:00;;;;;;;;;;;15.70;98.20;;;;;;5075055;28;19943;-46
2022/06/21 07:32:56;;;;;;;;;;;15.60;98.30;;;;;;5055326;28;20496;-47
2022/06/21 07:35:46;;;;;;;;;;;15.50;98.30;;;;;;5059142;28;20323;-45
2022/06/21 07:38:36;;;;;;;;;;;15.50;98.20;;;;;;5075182;28;19978;-47
2022/06/21 07:41:26;;;;;;;;;;;15.50;97.40;;;;;;5075510;28;19962;-47
2022/06/21 07:44:14;;;;;;;;;;;15.80;97.10;;;;;;5080463;28;19924;-45
2022/06/21 07:47:00;;;;;;;;;;;16.10;96.40;;;;;;5062010;22;19928;-81
2022/06/21 07:49:46;;;;;;;;;;;16.40;96.80;;;;;;5040472;28;19915;-80
2022/06/21 07:52:36;;;;;;;;;;;16.20;96.70;;;;;;5055989;28;19925;-81
2022/06/21 07:55:27;;;;;;;;;;;16.00;96.60;;;;;;5065726;28;19919;-80
2022/06/21 07:58:17;;;;;;;;;;;15.60;96.90;;;;;;5049303;28;19911;-80
2022/06/21 08:07:36;;;;;;;;;;;16.10;96.30;;;;;;5045616;28;19947;-78
2022/06/21 08:10:23;;;;;;;;;;;16.20;96.10;;;;;;5043962;28;19912;-78
2022/06/21 08:13:07;;;;;;;;;;;16.40;96.30;;;;;;5029632;28;19963;-78
2022/06/21 08:15:55;;;;;;;;;;;16.40;95.20;;;;;;5042411;28;19920;-77
2022/06/21 08:18:52;;;;;;;;;;;16.60;94.90;;;;;;5058607;28;19916;-78
2022/06/21 08:21:39;;;;;;;;;;;16.80;95.40;;;;;;5045030;28;20414;-77
2022/06/21 08:24:28;;;;;;;;;;;16.60;95.50;;;;;;5030730;28;19920;-79
2022/06/21 08:27:19;;;;;;;;;;;16.60;95.40;;;;;;5061616;28;19916;-79
2022/06/21 08:30:10;;;;;;;;;;;16.80;94.60;;;;;;5057033;28;19911;-79
2022/06/21 08:32:54;;;;;;;;;;;16.70;94.40;;;;;;5056242;28;19958;-77
2022/06/21 08:35:40;;;;;;;;;;;16.80;94.30;;;;;;5028735;28;19912;-80
2022/06/21 08:38:34;;;;;;;;;;;17.00;93.60;;;;;;5065530;28;19913;-80
2022/06/21 08:44:25;;;;;;;;;;;17.20;93.50;;;;;;5052516;28;19915;-79
2022/06/21 08:47:29;;;;;;;;;;;17.30;92.80;;;;;;5048648;28;19920;-78
2022/06/21 08:50:28;;;;;;;;;;;17.30;92.00;;;;;;5035511;28;19926;-76
2022/06/21 08:53:28;;;;;;;;;;;17.20;92.20;;;;;;5063076;28;19912;-77
2022/06/21 08:56:17;;;;;;;;;;;17.50;92.70;;;;;;5076711;28;20283;-78
2022/06/21 08:59:02;;;;;;;;;;;17.30;93.00;;;;;;5062049;28;19916;-78
2022/06/21 09:01:52;;;;;;;;;;;17.40;92.40;;;;;;5048797;28;19958;-79
2022/06/21 09:04:39;;;;;;;;;;;17.50;93.50;;;;;;5063979;28;19977;-80
2022/06/21 09:07:30;;;;;;;;;;;17.60;93.00;;;;;;5046399;28;19911;-79
2022/06/21 09:10:15;;;;;;;;;;;17.40;93.10;;;;;;5046080;28;19915;-80
2022/06/21 09:12:59;;;;;;;;;;;17.30;93.00;;;;;;5047467;28;19960;-77
2022/06/21 09:15:43;;;;;;;;;;;17.40;92.80;;;;;;5047735;28;19915;-80
2022/06/21 09:18:34;;;;;;;;;;;17.60;92.30;;;;;;5047956;28;20379;-80
2022/06/21 09:21:41;;;;;;;;;;;17.70;92.60;;;;;;5046497;28;19912;-78
2022/06/21 09:24:34;;;;;;;;;;;17.70;92.00;;;;;;5066383;28;20009;-81
2022/06/21 09:27:24;;;;;;;;;;;17.50;92.50;;;;;;5071182;28;19928;-79
2022/06/21 09:30:18;;;;;;;;;;;17.70;92.90;;;;;;5046105;28;19912;-78
2022/06/21 09:33:14;;;;;;;;;;;17.70;91.20;;;;;;5044846;28;19915;-78
2022/06/21 09:36:05;;;;;;;;;;;17.90;91.30;;;;;;5072806;28;19926;-79
2022/06/21 09:38:52;;;;;;;;;;;18.20;91.20;;;;;;5072505;28;19943;-80
2022/06/21 09:41:39;;;;;;;;;;;18.50;90.10;;;;;;5047229;28;20333;-80
2022/06/21 09:44:42;;;;;;;;;;;18.70;90.30;;;;;;5051154;28;19966;-79
2022/06/21 09:47:42;;;;;;;;;;;18.60;91.10;;;;;;5061823;28;20008;-78
2022/06/21 09:50:35;;;;;;;;;;;18.60;91.10;;;;;;5050007;28;20000;-79
2022/06/21 09:53:19;;;;;;;;;;;18.40;90.90;;;;;;5049122;28;19912;-78
2022/06/21 09:56:26;;;;;;;;;;;18.10;91.10;;;;;;5075816;28;19939;-77
2022/06/21 09:59:15;;;;;;;;;;;18.30;90.90;;;;;;5047138;28;19912;-78
2022/06/21 10:02:05;;;;;;;;;;;18.50;90.70;;;;;;5048601;28;19931;-77
2022/06/21 10:05:08;;;;;;;;;;;18.80;90.60;;;;;;5027200;28;20002;-79
2022/06/21 10:08:11;;;;;;;;;;;18.80;89.50;;;;;;5048915;28;19987;-80
2022/06/21 10:11:02;;;;;;;;;;;18.80;89.70;;;;;;5051814;28;19926;-77
2022/06/21 10:13:54;;;;;;;;;;;18.80;89.00;;;;;;5079029;28;20367;-77
2022/06/21 10:16:39;;;;;;;;;;;18.80;89.30;;;;;;5072723;28;19911;-77
2022/06/21 10:19:31;;;;;;;;;;;18.80;88.90;;;;;;5031944;28;19916;-78
2022/06/21 10:22:31;;;;;;;;;;;18.90;89.10;;;;;;5055394;28;19974;-77
2022/06/21 10:25:31;;;;;;;;;;;18.90;88.50;;;;;;5052269;28;20001;-79
2022/06/21 10:28:35;;;;;;;;;;;19.20;86.40;;;;;;5057236;28;20441;-77
2022/06/21 10:31:25;;;;;;;;;;;19.30;85.90;;;;;;5052958;28;19950;-79
2022/06/21 10:34:29;;;;;;;;;;;19.30;85.80;;;;;;5061375;28;19911;-77
2022/06/21 10:37:22;;;;;;;;;;;19.50;85.90;;;;;;5029279;28;20051;-77
2022/06/21 10:40:12;;;;;;;;;;;19.20;84.30;;;;;;5043359;28;19989;-78
2022/06/21 10:43:02;;;;;;;;;;;19.30;85.00;;;;;;5063275;28;19961;-79
2022/06/21 10:45:48;;;;;;;;;;;19.40;83.80;;;;;;5054215;28;20402;-79
2022/06/21 10:48:42;;;;;;;;;;;19.30;84.60;;;;;;5049640;28;19911;-77
2022/06/21 10:51:33;;;;;;;;;;;19.40;84.10;;;;;;5048959;28;19959;-78
2022/06/21 10:54:36;;;;;;;;;;;19.80;84.30;;;;;;5065563;28;19927;-78
2022/06/21 10:57:29;;;;;;;;;;;19.80;84.40;;;;;;5050563;28;19927;-79
2022/06/21 11:03:36;;;;;;;;;;;19.60;84.10;;;;;;5065151;28;19919;-78
2022/06/21 11:06:30;;;;;;;;;;;19.50;83.30;;;;;;5034783;28;19912;-79
2022/06/21 11:09:14;;;;;;;;;;;19.70;84.60;;;;;;5029748;28;20375;-77
2022/06/21 11:15:25;;;;;;;;;;;20.40;82.30;;;;;;5048847;28;19916;-77
2022/06/21 11:18:47;;;;;;;;;;;20.40;79.70;;;;;;5045993;28;19915;-77
2022/06/21 11:22:15;;;;;;;;;;;20.60;77.90;;;;;;5076655;28;20161;-78
2022/06/21 11:25:02;;;;;;;;;;;20.50;79.80;;;;;;5060899;28;19915;-76
2022/06/21 11:28:06;;;;;;;;;;;20.60;78.60;;;;;;5030203;28;19940;-78
2022/06/21 11:31:40;;;;;;;;;;;;;;;;;;;;;
2022/06/21 11:34:40;;;;;;;;;;;20.60;78.50;;;;;;5064509;28;20548;-76
2022/06/21 11:37:30;;;;;;;;;;;20.60;78.30;;;;;;5049632;28;19911;-77
2022/06/21 11:40:23;;;;;;;;;;;20.70;77.00;;;;;;5062727;28;19971;-76
2022/06/21 11:43:37;;;;;;;;;;;20.60;76.30;;;;;;5055667;28;19916;-76
2022/06/21 11:46:27;;;;;;;;;;;20.60;75.80;;;;;;5016742;28;19920;-77
2022/06/21 11:49:11;;;;;;;;;;;20.50;76.90;;;;;;5065444;28;19912;-77
2022/06/21 11:51:55;;;;;;;;;;;20.60;76.20;;;;;;5076048;28;19947;-78
2022/06/21 11:58:13;;;;;;;;;;;20.80;75.20;;;;;;4961141;28;19917;-77
2022/06/21 12:00:57;;;;;;;;;;;21.00;78.00;;;;;;5047202;28;19930;-78
2022/06/21 12:03:41;;;;;;;;;;;21.40;75.50;;;;;;5048362;28;19916;-80
2022/06/21 12:06:49;;;;;;;;;;;21.60;74.60;;;;;;5050579;28;19912;-79
2022/06/21 12:09:34;;;;;;;;;;;21.90;73.10;;;;;;5037133;28;19911;-79
2022/06/21 12:12:24;;;;;;;;;;;22.00;71.90;;;;;;5077154;28;19954;-79
2022/06/21 12:15:27;;;;;;;;;;;21.80;74.10;;;;;;5054828;28;19912;-80
2022/06/21 12:18:17;;;;;;;;;;;21.50;74.40;;;;;;5064364;28;19951;-79
2022/06/21 12:21:06;;;;;;;;;;;21.50;74.20;;;;;;5058107;28;19911;-77
2022/06/21 12:23:53;;;;;;;;;;;21.30;73.40;;;;;;5034887;28;19919;-78
2022/06/21 12:26:41;;;;;;;;;;;21.60;72.10;;;;;;5065540;28;19970;-77
2022/06/21 12:29:28;;;;;;;;;;;21.70;71.50;;;;;;5062821;28;19916;-77
2022/06/21 12:32:18;;;;;;;;;;;21.80;70.50;;;;;;5050738;28;20228;-78
2022/06/21 12:35:15;;;;;;;;;;;22.00;69.20;;;;;;5045747;28;19983;-78
2022/06/21 12:38:00;;;;;;;;;;;22.20;68.80;;;;;;5061658;28;19911;-78
2022/06/21 12:40:52;;;;;;;;;;;22.30;69.00;;;;;;5034224;28;19915;-78
2022/06/21 12:43:51;;;;;;;;;;;22.50;68.50;;;;;;5062622;28;19955;-80
2022/06/21 12:46:54;;;;;;;;;;;22.60;67.30;;;;;;5047462;28;19959;-76
2022/06/21 12:49:57;;;;;;;;;;;22.80;66.70;;;;;;5047446;28;19916;-78
2022/06/21 12:52:54;;;;;;;;;;;22.70;66.90;;;;;;5048369;28;19981;-78
2022/06/21 12:55:41;;;;;;;;;;;22.40;67.10;;;;;;5046879;28;19916;-78
2022/06/21 12:58:35;;;;;;;;;;;22.70;66.90;;;;;;5045791;28;20444;-77
2022/06/21 13:01:22;;;;;;;;;;;23.00;68.30;;;;;;5045503;28;19959;-78
2022/06/21 13:04:19;;;;;;;;;;;23.20;66.00;;;;;;5044988;28;19951;-76
2022/06/21 13:07:14;;;;;;;;;;;23.40;65.40;;;;;;5060796;28;19912;-77
2022/06/21 13:10:17;;;;;;;;;;;23.30;64.50;;;;;;5046415;28;19970;-77
2022/06/21 13:13:05;;;;;;;;;;;23.60;63.70;;;;;;5047368;28;19924;-78
2022/06/21 13:15:52;;;;;;;;;;;23.70;63.20;;;;;;5052324;28;19916;-78
2022/06/21 13:18:52;;;;;;;;;;;23.80;62.90;;;;;;5046535;28;19927;-78
2022/06/21 13:21:48;;;;;;;;;;;23.60;62.30;;;;;;5059199;28;19911;-79
2022/06/21 13:24:45;;;;;;;;;;;23.30;63.40;;;;;;5060117;28;19916;-78
2022/06/21 13:27:30;;;;;;;;;;;23.20;63.30;;;;;;5061149;28;19958;-79
2022/06/21 13:30:40;;;;;;;;;;;23.60;63.10;;;;;;5060470;28;19951;-78
2022/06/21 13:33:32;;;;;;;;;;;23.90;62.70;;;;;;5060364;28;19911;-80
2022/06/21 13:36:20;;;;;;;;;;;24.20;62.90;;;;;;5061708;28;20298;-78
2022/06/21 13:39:13;;;;;;;;;;;24.10;62.90;;;;;;5059551;28;19912;-78
2022/06/21 13:45:14;;;;;;;;;;;24.50;62.80;;;;;;5061575;28;19920;-80
2022/06/21 13:48:04;;;;;;;;;;;24.70;62.00;;;;;;5060463;28;19915;-78
2022/06/21 13:51:01;;;;;;;;;;;25.00;61.90;;;;;;5061116;28;20045;-78
2022/06/21 13:53:56;;;;;;;;;;;24.90;60.30;;;;;;5062837;28;19912;-79
2022/06/21 13:57:17;;;;;;;;;;;24.60;60.00;;;;;;5062990;28;19927;-78
2022/06/21 14:00:04;;;;;;;;;;;24.80;60.30;;;;;;5062322;28;19955;-81
2022/06/21 14:03:10;;;;;;;;;;;25.20;61.10;;;;;;5063218;28;19915;-79
2022/06/21 14:06:01;;;;;;;;;;;25.20;60.20;;;;;;5062965;28;19911;-79
2022/06/21 14:08:52;;;;;;;;;;;25.30;59.10;;;;;;5062604;28;20363;-79
2022/06/21 14:11:44;;;;;;;;;;;25.20;59.30;;;;;;5089469;28;19916;-75
2022/06/21 14:14:35;;;;;;;;;;;24.90;59.60;;;;;;5039389;28;19927;-78
2022/06/21 14:17:30;;;;;;;;;;;24.70;59.90;;;;;;5036932;28;20000;-76
2022/06/21 14:34:33;;;;;;;;;;;24.20;61.20;;;;;;5015563;28;19973;-78
2022/06/21 14:37:33;;;;;;;;;;;24.40;61.30;;;;;;5054104;28;19916;-77
2022/06/21 14:40:16;;;;;;;;;;;24.60;59.90;;;;;;5070871;22;20312;-49
2022/06/21 14:43:07;;;;;;;;;;;24.90;59.60;;;;;;5050481;28;19920;-51
2022/06/21 14:46:00;;;;;;;;;;;25.20;58.70;;;;;;5051826;28;19935;-52
2022/06/21 14:48:50;;;;;;;;;;;25.80;57.30;;;;;;5057232;28;19911;-54
2022/06/21 14:51:38;;;;;;;;;;;25.20;58.40;;;;;;5073836;28;20263;-53
2022/06/21 14:54:29;;;;;;;;;;;25.10;59.60;;;;;;5077642;28;20001;-50
2022/06/21 14:57:23;;;;;;;;;;;25.10;59.00;;;;;;5061873;28;19911;-55
2022/06/21 15:00:28;;;;;;;;;;;25.40;58.90;;;;;;5080063;28;19910;-53
2022/06/21 15:03:19;;;;;;;;;;;25.50;58.90;;;;;;5076102;28;19915;-55
2022/06/21 15:06:24;;;;;;;;;;;25.40;59.50;;;;;;5075846;28;20425;-54
2022/06/21 15:09:14;;;;;;;;;;;25.40;59.20;;;;;;5072527;28;19973;-53
2022/06/21 15:12:03;;;;;;;;;;;25.50;58.30;;;;;;5075853;28;20286;-53
2022/06/21 15:14:51;;;;;;;;;;;25.60;57.80;;;;;;5059539;28;19912;-52
2022/06/21 15:17:47;;;;;;;;;;;26.10;58.40;;;;;;5054825;28;19911;-57
2022/06/21 15:20:42;;;;;;;;;;;26.40;57.90;;;;;;5028006;28;20340;-53
2022/06/21 15:23:29;;;;;;;;;;;26.70;56.50;;;;;;5056151;28;19916;-52
2022/06/21 15:26:19;;;;;;;;;;;26.90;56.70;;;;;;5056060;28;20043;-52
2022/06/21 15:29:06;;;;;;;;;;;26.80;57.20;;;;;;5055876;28;19954;-51
2022/06/21 15:31:56;;;;;;;;;;;26.50;57.40;;;;;;5055945;28;19959;-52
2022/06/21 15:34:45;;;;;;;;;;;26.40;57.20;;;;;;5041096;28;20367;-54
2022/06/21 15:37:40;;;;;;;;;;;26.60;57.20;;;;;;5055981;28;20004;-53
2022/06/21 15:40:32;;;;;;;;;;;26.60;57.00;;;;;;5055896;28;19974;-53
2022/06/21 15:43:22;;;;;;;;;;;26.70;56.50;;;;;;5055184;28;19916;-49
2022/06/21 15:46:09;;;;;;;;;;;26.70;56.40;;;;;;5055582;28;19949;-53
2022/06/21 15:52:14;;;;;;;;;;;26.90;56.20;;;;;;5056222;28;19912;-50
2022/06/21 15:58:54;;;;;;;;;;;26.50;56.60;;;;;;4996067;28;20056;-53
2022/06/21 16:01:58;;;;;;;;;;;26.10;57.90;;;;;;5055761;28;20383;-51
2022/06/21 16:04:48;;;;;;;;;;;26.00;58.00;;;;;;5038359;28;19963;-51
2022/06/21 16:07:36;;;;;;;;;;;26.20;56.90;;;;;;5055616;28;20320;-47
2022/06/21 16:10:27;;;;;;;;;;;26.40;56.60;;;;;;5077442;28;19911;-51
2022/06/21 16:13:14;;;;;;;;;;;26.10;57.00;;;;;;5051761;28;19911;-48
2022/06/21 16:16:03;;;;;;;;;;;26.50;57.40;;;;;;5053760;28;19919;-52
2022/06/21 16:18:52;;;;;;;;;;;27.00;56.70;;;;;;5054109;28;19915;-47
2022/06/21 16:21:44;;;;;;;;;;;26.80;57.00;;;;;;5038409;28;19916;-55
2022/06/21 16:24:47;;;;;;;;;;;26.70;56.20;;;;;;5038854;28;19999;-51
2022/06/21 16:27:43;;;;;;;;;;;27.30;56.30;;;;;;5054522;28;19970;-48
2022/06/21 16:30:29;;;;;;;;;;;27.80;55.00;;;;;;5038797;28;19916;-55
2022/06/21 16:33:17;;;;;;;;;;;28.00;54.70;;;;;;5038867;28;19911;-53
2022/06/21 16:36:04;;;;;;;;;;;28.00;54.30;;;;;;5055338;28;19967;-48
2022/06/21 16:38:50;;;;;;;;;;;28.70;54.40;;;;;;5054356;28;19979;-51
2022/06/21 16:44:56;;;;;;;;;;;30.50;53.10;;;;;;5056415;28;19919;-52
2022/06/21 16:47:45;;;;;;;;;;;32.00;51.50;;;;;;5039988;28;19911;-53
2022/06/21 16:50:52;;;;;;;;;;;33.90;50.60;;;;;;5055129;28;19916;-54
2022/06/21 16:53:42;;;;;;;;;;;35.20;48.10;;;;;;5054632;28;19911;-49
2022/06/21 16:56:31;;;;;;;;;;;36.00;46.30;;;;;;5055054;28;19912;-49
2022/06/21 16:59:19;;;;;;;;;;;36.50;46.00;;;;;;5054947;28;20175;-57
2022/06/21 17:02:05;;;;;;;;;;;37.50;45.50;;;;;;5053906;28;19915;-51
2022/06/21 17:05:12;;;;;;;;;;;38.90;44.20;;;;;;5053408;28;20368;-54
2022/06/21 17:07:56;;;;;;;;;;;39.60;42.50;;;;;;5039228;28;19927;-50
2022/06/21 17:13:48;;;;;;;;;;;39.80;41.60;;;;;;5056685;28;19916;-57
2022/06/21 17:16:41;;;;;;;;;;;37.80;41.90;;;;;;5033924;28;19928;-50
2022/06/21 17:19:32;;;;;;;;;;;36.30;42.60;;;;;;5050452;28;19919;-58
2022/06/21 17:22:16;;;;;;;;;;;36.00;42.50;;;;;;5052833;28;19916;-54
2022/06/21 17:25:01;;;;;;;;;;;35.90;43.00;;;;;;5052728;28;20467;-52
2022/06/21 17:28:04;;;;;;;;;;;36.80;41.90;;;;;;5053695;28;19939;-54
2022/06/21 17:30:55;;;;;;;;;;;38.50;40.90;;;;;;5053092;28;19915;-52